sensor_id;sensor_type;location;lat;lon;timestamp;pressure;altitude;pressure_sealevel;temperature;humidity
35479;BME280;21594;49.794;18.652;2022-08-01T00:01:15;98024.28;;;15.92;100.00
35479;BME280;21594;49.794;18.652;2022-08-01T00:03:41;98014.98;;;15.88;100.00
35479;BME280;21594;49.794;18.652;2022-08-01T00:06:07;98007.27;;;15.90;100.00
35479;BME280;21594;49.794;18.652;2022-08-01T00:08:34;98006.66;;;15.97;100.00
35479;BME280;21594;49.794;18.652;2022-08-01T00:11:00;98008.64;;;15.99;100.00
35479;BME280;21594;49.794;18.652;2022-08-01T00:13:26;98009.82;;;16.00;100.00
35479;BME280;21594;49.794;18.652;2022-08-01T00:15:54;98010.68;;;16.05;100.00
35479;BME280;21594;49.794;18.652;2022-08-01T00:18:23;98013.52;;;16.07;100.00
35479;BME280;21594;49.794;18.652;2022-08-01T00:20:49;98010.28;;;15.96;100.00
35479;BME280;21594;49.794;18.652;2022-08-01T00:23:15;98013.86;;;15.90;100.00
35479;BME280;21594;49.794;18.652;2022-08-01T00:25:45;98007.13;;;15.92;100.00
35479;BME280;21594;49.794;18.652;2022-08-01T00:28:12;98008.66;;;15.81;100.00
35479;BME280;21594;49.794;18.652;2022-08-01T00:30:39;98013.36;;;15.73;100.00
35479;BME280;21594;49.794;18.652;2022-08-01T00:33:07;98015.16;;;15.73;100.00
35479;BME280;21594;49.794;18.652;2022-08-01T00:35:40;98015.23;;;15.63;100.00
35479;BME280;21594;49.794;18.652;2022-08-01T00:38:06;98010.94;;;15.48;100.00
35479;BME280;21594;49.794;18.652;2022-08-01T00:40:32;98010.75;;;15.32;100.00
35479;BME280;21594;49.794;18.652;2022-08-01T00:42:58;98011.22;;;15.18;100.00
35479;BME280;21594;49.794;18.652;2022-08-01T00:45:24;98010.34;;;15.14;100.00
35479;BME280;21594;49.794;18.652;2022-08-01T00:47:52;98009.67;;;15.25;100.00
35479;BME280;21594;49.794;18.652;2022-08-01T00:50:19;98013.08;;;15.35;100.00
35479;BME280;21594;49.794;18.652;2022-08-01T00:52:53;98007.70;;;15.41;100.00
35479;BME280;21594;49.794;18.652;2022-08-01T00:55:21;98005.73;;;15.53;100.00
35479;BME280;21594;49.794;18.652;2022-08-01T00:57:48;98007.81;;;15.63;100.00
35479;BME280;21594;49.794;18.652;2022-08-01T01:00:15;98007.56;;;15.70;100.00
35479;BME280;21594;49.794;18.652;2022-08-01T01:02:42;98011.23;;;15.77;100.00
35479;BME280;21594;49.794;18.652;2022-08-01T01:05:09;98011.30;;;15.81;100.00
35479;BME280;21594;49.794;18.652;2022-08-01T01:07:44;98005.19;;;15.80;100.00
35479;BME280;21594;49.794;18.652;2022-08-01T01:10:21;98007.80;;;15.76;100.00
35479;BME280;21594;49.794;18.652;2022-08-01T01:12:57;98013.19;;;15.71;100.00
35479;BME280;21594;49.794;18.652;2022-08-01T01:15:37;98008.16;;;15.64;100.00
35479;BME280;21594;49.794;18.652;2022-08-01T01:18:05;98000.69;;;15.59;100.00
35479;BME280;21594;49.794;18.652;2022-08-01T01:20:35;97993.55;;;15.56;100.00
35479;BME280;21594;49.794;18.652;2022-08-01T01:31:18;97992.54;;;15.53;100.00
35479;BME280;21594;49.794;18.652;2022-08-01T01:33:46;97987.02;;;15.50;100.00
35479;BME280;21594;49.794;18.652;2022-08-01T01:36:16;97979.70;;;15.44;100.00
35479;BME280;21594;49.794;18.652;2022-08-01T01:38:45;97988.03;;;15.35;100.00
35479;BME280;21594;49.794;18.652;2022-08-01T01:41:15;97986.02;;;15.33;100.00
35479;BME280;21594;49.794;18.652;2022-08-01T01:43:43;97988.75;;;15.28;100.00
35479;BME280;21594;49.794;18.652;2022-08-01T01:46:11;97986.50;;;15.33;100.00
35479;BME280;21594;49.794;18.652;2022-08-01T01:48:38;97986.57;;;15.37;100.00
35479;BME280;21594;49.794;18.652;2022-08-01T01:51:05;97985.43;;;15.39;100.00
35479;BME280;21594;49.794;18.652;2022-08-01T01:53:34;97990.32;;;15.34;100.00
35479;BME280;21594;49.794;18.652;2022-08-01T01:56:02;97992.67;;;15.37;100.00
35479;BME280;21594;49.794;18.652;2022-08-01T01:58:31;97983.77;;;15.38;100.00
35479;BME280;21594;49.794;18.652;2022-08-01T02:00:59;97996.81;;;15.40;100.00
35479;BME280;21594;49.794;18.652;2022-08-01T02:03:28;97987.89;;;15.37;100.00
35479;BME280;21594;49.794;18.652;2022-08-01T02:05:55;97975.67;;;15.22;100.00
35479;BME280;21594;49.794;18.652;2022-08-01T02:08:28;97985.73;;;15.23;100.00
35479;BME280;21594;49.794;18.652;2022-08-01T02:10:55;97990.83;;;15.20;100.00
35479;BME280;21594;49.794;18.652;2022-08-01T02:13:59;97986.52;;;15.19;100.00
35479;BME280;21594;49.794;18.652;2022-08-01T02:16:34;97986.08;;;15.24;100.00
35479;BME280;21594;49.794;18.652;2022-08-01T02:19:01;97979.34;;;15.25;100.00
35479;BME280;21594;49.794;18.652;2022-08-01T02:21:30;97982.95;;;15.24;100.00
35479;BME280;21594;49.794;18.652;2022-08-01T02:24:06;97984.86;;;15.18;100.00
35479;BME280;21594;49.794;18.652;2022-08-01T02:26:29;97982.14;;;15.10;100.00
35479;BME280;21594;49.794;18.652;2022-08-01T02:29:02;97990.63;;;15.04;100.00
35479;BME280;21594;49.794;18.652;2022-08-01T02:31:32;97986.77;;;14.98;100.00
35479;BME280;21594;49.794;18.652;2022-08-01T02:34:02;97989.15;;;14.92;100.00
35479;BME280;21594;49.794;18.652;2022-08-01T02:36:30;97988.63;;;14.88;100.00
35479;BME280;21594;49.794;18.652;2022-08-01T02:39:00;97986.91;;;14.83;100.00
35479;BME280;21594;49.794;18.652;2022-08-01T02:46:31;97981.60;;;14.70;100.00
35479;BME280;21594;49.794;18.652;2022-08-01T02:48:59;97984.23;;;14.70;100.00
35479;BME280;21594;49.794;18.652;2022-08-01T02:51:27;97978.97;;;14.70;100.00
35479;BME280;21594;49.794;18.652;2022-08-01T02:53:57;97978.35;;;14.72;100.00
35479;BME280;21594;49.794;18.652;2022-08-01T02:56:25;97984.77;;;14.73;100.00
35479;BME280;21594;49.794;18.652;2022-08-01T02:58:54;97981.66;;;14.74;100.00
35479;BME280;21594;49.794;18.652;2022-08-01T03:01:20;97979.02;;;14.74;100.00
35479;BME280;21594;49.794;18.652;2022-08-01T03:03:47;97984.15;;;14.75;100.00
35479;BME280;21594;49.794;18.652;2022-08-01T03:06:15;97982.83;;;14.75;100.00
35479;BME280;21594;49.794;18.652;2022-08-01T03:08:44;97984.63;;;14.75;100.00
35479;BME280;21594;49.794;18.652;2022-08-01T03:11:11;97984.63;;;14.75;100.00
35479;BME280;21594;49.794;18.652;2022-08-01T03:13:40;97981.55;;;14.65;100.00
35479;BME280;21594;49.794;18.652;2022-08-01T03:16:15;97978.79;;;14.67;100.00
35479;BME280;21594;49.794;18.652;2022-08-01T03:18:50;97978.48;;;14.70;100.00
35479;BME280;21594;49.794;18.652;2022-08-01T03:21:19;97977.79;;;14.68;100.00
35479;BME280;21594;49.794;18.652;2022-08-01T03:23:48;97979.94;;;14.69;100.00
35479;BME280;21594;49.794;18.652;2022-08-01T03:26:17;97981.25;;;14.69;100.00
35479;BME280;21594;49.794;18.652;2022-08-01T03:28:46;97980.23;;;14.65;100.00
35479;BME280;21594;49.794;18.652;2022-08-01T03:31:13;97984.45;;;14.62;100.00
35479;BME280;21594;49.794;18.652;2022-08-01T03:33:40;97982.13;;;14.59;100.00
35479;BME280;21594;49.794;18.652;2022-08-01T03:36:09;97982.08;;;14.55;100.00
35479;BME280;21594;49.794;18.652;2022-08-01T03:38:37;97986.64;;;14.53;100.00
35479;BME280;21594;49.794;18.652;2022-08-01T03:41:16;97979.23;;;14.53;100.00
35479;BME280;21594;49.794;18.652;2022-08-01T03:43:57;97973.83;;;14.54;100.00
35479;BME280;21594;49.794;18.652;2022-08-01T03:46:30;97977.42;;;14.53;100.00
35479;BME280;21594;49.794;18.652;2022-08-01T03:49:00;97975.41;;;14.51;100.00
35479;BME280;21594;49.794;18.652;2022-08-01T03:51:27;97980.01;;;14.49;100.00
35479;BME280;21594;49.794;18.652;2022-08-01T03:53:56;97978.34;;;14.48;100.00
35479;BME280;21594;49.794;18.652;2022-08-01T03:56:27;97981.28;;;14.45;100.00
35479;BME280;21594;49.794;18.652;2022-08-01T03:58:59;97979.61;;;14.44;100.00
35479;BME280;21594;49.794;18.652;2022-08-01T04:01:25;97983.56;;;14.44;100.00
35479;BME280;21594;49.794;18.652;2022-08-01T04:03:52;97981.06;;;14.43;100.00
35479;BME280;21594;49.794;18.652;2022-08-01T04:06:19;97984.39;;;14.45;100.00
35479;BME280;21594;49.794;18.652;2022-08-01T04:08:46;97985.76;;;14.49;100.00
35479;BME280;21594;49.794;18.652;2022-08-01T04:11:17;97983.39;;;14.55;100.00
35479;BME280;21594;49.794;18.652;2022-08-01T04:13:43;97985.86;;;14.57;100.00
35479;BME280;21594;49.794;18.652;2022-08-01T04:16:09;97991.39;;;14.63;100.00
35479;BME280;21594;49.794;18.652;2022-08-01T04:18:35;97994.64;;;14.71;100.00
35479;BME280;21594;49.794;18.652;2022-08-01T04:21:01;97992.66;;;14.83;100.00
35479;BME280;21594;49.794;18.652;2022-08-01T04:23:29;97994.12;;;14.95;100.00
35479;BME280;21594;49.794;18.652;2022-08-01T04:25:59;97995.64;;;15.11;100.00
35479;BME280;21594;49.794;18.652;2022-08-01T04:28:25;97998.77;;;15.24;100.00
35479;BME280;21594;49.794;18.652;2022-08-01T04:30:54;97995.94;;;15.35;100.00
35479;BME280;21594;49.794;18.652;2022-08-01T04:33:22;97993.52;;;15.38;100.00
35479;BME280;21594;49.794;18.652;2022-08-01T04:35:52;97993.23;;;15.45;100.00
35479;BME280;21594;49.794;18.652;2022-08-01T04:38:21;97992.75;;;15.45;100.00
35479;BME280;21594;49.794;18.652;2022-08-01T04:40:49;97996.22;;;15.46;100.00
35479;BME280;21594;49.794;18.652;2022-08-01T04:43:16;97993.44;;;15.47;100.00
35479;BME280;21594;49.794;18.652;2022-08-01T04:45:43;97994.45;;;15.50;100.00
35479;BME280;21594;49.794;18.652;2022-08-01T04:48:11;98001.88;;;15.51;100.00
35479;BME280;21594;49.794;18.652;2022-08-01T04:50:41;98003.64;;;15.60;100.00
35479;BME280;21594;49.794;18.652;2022-08-01T04:53:16;97996.19;;;15.56;100.00
35479;BME280;21594;49.794;18.652;2022-08-01T04:55:44;98005.86;;;15.65;100.00
35479;BME280;21594;49.794;18.652;2022-08-01T04:58:12;98006.97;;;15.76;100.00
35479;BME280;21594;49.794;18.652;2022-08-01T05:00:38;98002.70;;;15.79;100.00
35479;BME280;21594;49.794;18.652;2022-08-01T05:03:05;98002.06;;;15.81;100.00
35479;BME280;21594;49.794;18.652;2022-08-01T05:05:31;97996.62;;;15.82;100.00
35479;BME280;21594;49.794;18.652;2022-08-01T05:07:57;97993.49;;;15.83;100.00
35479;BME280;21594;49.794;18.652;2022-08-01T05:10:24;98006.69;;;15.83;100.00
35479;BME280;21594;49.794;18.652;2022-08-01T05:12:51;97996.02;;;15.88;100.00
35479;BME280;21594;49.794;18.652;2022-08-01T05:15:18;97995.77;;;15.96;100.00
35479;BME280;21594;49.794;18.652;2022-08-01T05:17:44;97996.94;;;15.97;100.00
35479;BME280;21594;49.794;18.652;2022-08-01T05:20:12;97997.34;;;16.06;100.00
35479;BME280;21594;49.794;18.652;2022-08-01T05:22:39;97992.14;;;16.14;100.00
35479;BME280;21594;49.794;18.652;2022-08-01T05:25:06;97993.02;;;16.23;100.00
35479;BME280;21594;49.794;18.652;2022-08-01T05:27:32;97999.52;;;16.32;100.00
35479;BME280;21594;49.794;18.652;2022-08-01T05:30:00;97997.45;;;16.40;100.00
35479;BME280;21594;49.794;18.652;2022-08-01T05:32:26;97998.98;;;16.47;100.00
35479;BME280;21594;49.794;18.652;2022-08-01T05:34:54;98003.48;;;16.54;100.00
35479;BME280;21594;49.794;18.652;2022-08-01T05:37:20;97997.22;;;16.55;100.00
35479;BME280;21594;49.794;18.652;2022-08-01T05:39:46;97994.16;;;16.64;100.00
35479;BME280;21594;49.794;18.652;2022-08-01T05:42:12;97998.81;;;16.70;100.00
35479;BME280;21594;49.794;18.652;2022-08-01T05:44:38;98000.34;;;16.77;100.00
35479;BME280;21594;49.794;18.652;2022-08-01T05:47:04;98003.34;;;16.82;100.00
35479;BME280;21594;49.794;18.652;2022-08-01T05:49:30;98003.20;;;16.83;100.00
35479;BME280;21594;49.794;18.652;2022-08-01T05:51:56;98008.02;;;16.88;100.00
35479;BME280;21594;49.794;18.652;2022-08-01T05:54:22;98007.52;;;16.88;100.00
35479;BME280;21594;49.794;18.652;2022-08-01T05:57:04;98011.00;;;16.89;100.00
35479;BME280;21594;49.794;18.652;2022-08-01T05:59:31;98014.34;;;16.95;100.00
35479;BME280;21594;49.794;18.652;2022-08-01T06:01:58;98016.02;;;17.00;100.00
35479;BME280;21594;49.794;18.652;2022-08-01T06:04:28;98020.19;;;17.06;100.00
35479;BME280;21594;49.794;18.652;2022-08-01T06:09:25;98020.40;;;17.17;100.00
35479;BME280;21594;49.794;18.652;2022-08-01T06:11:52;98022.23;;;17.25;100.00
35479;BME280;21594;49.794;18.652;2022-08-01T06:16:54;98022.30;;;17.41;100.00
35479;BME280;21594;49.794;18.652;2022-08-01T06:19:21;98027.78;;;17.47;100.00
35479;BME280;21594;49.794;18.652;2022-08-01T06:21:47;98018.23;;;17.58;100.00
35479;BME280;21594;49.794;18.652;2022-08-01T06:24:13;98018.79;;;17.74;100.00
35479;BME280;21594;49.794;18.652;2022-08-01T06:26:39;98013.19;;;17.85;100.00
35479;BME280;21594;49.794;18.652;2022-08-01T06:31:31;98018.70;;;18.20;100.00
35479;BME280;21594;49.794;18.652;2022-08-01T06:33:58;98015.55;;;18.25;100.00
35479;BME280;21594;49.794;18.652;2022-08-01T06:36:24;98017.55;;;18.43;100.00
35479;BME280;21594;49.794;18.652;2022-08-01T06:38:55;98016.88;;;18.49;100.00
35479;BME280;21594;49.794;18.652;2022-08-01T06:41:24;98018.22;;;18.57;100.00
35479;BME280;21594;49.794;18.652;2022-08-01T06:43:50;98012.23;;;18.67;100.00
35479;BME280;21594;49.794;18.652;2022-08-01T06:46:16;98020.84;;;18.82;100.00
35479;BME280;21594;49.794;18.652;2022-08-01T06:48:42;98025.09;;;19.03;100.00
35479;BME280;21594;49.794;18.652;2022-08-01T06:51:08;98026.22;;;19.12;100.00
35479;BME280;21594;49.794;18.652;2022-08-01T06:53:36;98027.83;;;19.21;100.00
35479;BME280;21594;49.794;18.652;2022-08-01T06:56:03;98027.44;;;19.37;100.00
35479;BME280;21594;49.794;18.652;2022-08-01T06:58:29;98025.42;;;19.43;100.00
35479;BME280;21594;49.794;18.652;2022-08-01T07:00:56;98026.92;;;19.49;100.00
35479;BME280;21594;49.794;18.652;2022-08-01T07:03:21;98021.89;;;19.58;100.00
35479;BME280;21594;49.794;18.652;2022-08-01T07:05:47;98025.81;;;19.71;100.00
35479;BME280;21594;49.794;18.652;2022-08-01T07:08:14;98020.61;;;19.81;100.00
35479;BME280;21594;49.794;18.652;2022-08-01T07:10:40;98028.88;;;19.90;100.00
35479;BME280;21594;49.794;18.652;2022-08-01T07:13:06;98023.83;;;19.99;100.00
35479;BME280;21594;49.794;18.652;2022-08-01T07:15:32;98018.77;;;20.09;100.00
35479;BME280;21594;49.794;18.652;2022-08-01T07:17:58;98015.73;;;20.16;100.00
35479;BME280;21594;49.794;18.652;2022-08-01T07:20:28;98014.16;;;20.25;100.00
35479;BME280;21594;49.794;18.652;2022-08-01T07:22:54;98013.10;;;20.38;100.00
35479;BME280;21594;49.794;18.652;2022-08-01T07:25:20;98013.89;;;20.43;100.00
35479;BME280;21594;49.794;18.652;2022-08-01T07:27:46;98016.78;;;20.52;100.00
35479;BME280;21594;49.794;18.652;2022-08-01T07:30:13;98009.81;;;20.70;100.00
35479;BME280;21594;49.794;18.652;2022-08-01T07:32:39;98010.86;;;20.83;100.00
35479;BME280;21594;49.794;18.652;2022-08-01T07:35:05;98011.20;;;20.95;100.00
35479;BME280;21594;49.794;18.652;2022-08-01T07:37:32;98017.41;;;21.06;100.00
35479;BME280;21594;49.794;18.652;2022-08-01T07:39:59;98009.70;;;21.15;100.00
35479;BME280;21594;49.794;18.652;2022-08-01T07:42:25;98015.39;;;21.27;100.00
35479;BME280;21594;49.794;18.652;2022-08-01T07:44:51;98014.68;;;21.29;100.00
35479;BME280;21594;49.794;18.652;2022-08-01T07:47:25;98015.72;;;21.39;100.00
35479;BME280;21594;49.794;18.652;2022-08-01T07:49:58;98012.64;;;21.46;100.00
35479;BME280;21594;49.794;18.652;2022-08-01T07:52:21;98009.39;;;21.54;100.00
35479;BME280;21594;49.794;18.652;2022-08-01T07:54:47;98013.64;;;21.59;100.00
35479;BME280;21594;49.794;18.652;2022-08-01T07:57:13;98011.60;;;21.61;100.00
35479;BME280;21594;49.794;18.652;2022-08-01T07:59:39;98012.69;;;21.67;100.00
35479;BME280;21594;49.794;18.652;2022-08-01T08:02:05;98009.46;;;21.71;100.00
35479;BME280;21594;49.794;18.652;2022-08-01T08:04:31;98012.20;;;21.78;100.00
35479;BME280;21594;49.794;18.652;2022-08-01T08:06:57;98016.42;;;21.87;100.00
35479;BME280;21594;49.794;18.652;2022-08-01T08:09:23;98013.09;;;22.00;100.00
35479;BME280;21594;49.794;18.652;2022-08-01T08:11:49;98011.14;;;22.08;100.00
35479;BME280;21594;49.794;18.652;2022-08-01T08:14:16;98008.84;;;22.16;100.00
35479;BME280;21594;49.794;18.652;2022-08-01T08:16:45;98011.64;;;22.19;100.00
35479;BME280;21594;49.794;18.652;2022-08-01T08:19:13;98017.91;;;22.22;100.00
35479;BME280;21594;49.794;18.652;2022-08-01T08:21:40;98016.22;;;22.25;100.00
35479;BME280;21594;49.794;18.652;2022-08-01T08:24:07;98013.48;;;22.29;100.00
35479;BME280;21594;49.794;18.652;2022-08-01T08:26:52;98007.56;;;22.33;100.00
35479;BME280;21594;49.794;18.652;2022-08-01T08:29:20;98009.80;;;22.40;100.00
35479;BME280;21594;49.794;18.652;2022-08-01T08:31:48;98006.55;;;22.45;100.00
35479;BME280;21594;49.794;18.652;2022-08-01T08:34:17;98000.05;;;22.54;100.00
35479;BME280;21594;49.794;18.652;2022-08-01T08:36:46;98004.93;;;22.61;100.00
35479;BME280;21594;49.794;18.652;2022-08-01T08:39:12;98007.20;;;22.64;100.00
35479;BME280;21594;49.794;18.652;2022-08-01T08:41:39;98013.92;;;22.71;100.00
35479;BME280;21594;49.794;18.652;2022-08-01T08:44:07;98013.69;;;22.76;100.00
35479;BME280;21594;49.794;18.652;2022-08-01T08:46:34;98015.39;;;22.84;100.00
35479;BME280;21594;49.794;18.652;2022-08-01T08:49:03;98016.88;;;22.93;100.00
35479;BME280;21594;49.794;18.652;2022-08-01T08:51:31;98019.28;;;22.99;100.00
35479;BME280;21594;49.794;18.652;2022-08-01T08:54:00;98024.85;;;23.04;100.00
35479;BME280;21594;49.794;18.652;2022-08-01T08:56:31;98025.83;;;23.13;100.00
35479;BME280;21594;49.794;18.652;2022-08-01T08:59:00;98030.89;;;23.19;100.00
35479;BME280;21594;49.794;18.652;2022-08-01T09:01:26;98032.50;;;23.30;100.00
35479;BME280;21594;49.794;18.652;2022-08-01T09:03:53;98030.51;;;23.39;100.00
35479;BME280;21594;49.794;18.652;2022-08-01T09:06:19;98035.45;;;23.42;100.00
35479;BME280;21594;49.794;18.652;2022-08-01T09:08:46;98032.03;;;23.38;100.00
35479;BME280;21594;49.794;18.652;2022-08-01T09:11:12;98028.63;;;23.33;100.00
35479;BME280;21594;49.794;18.652;2022-08-01T09:13:38;98030.61;;;23.42;100.00
35479;BME280;21594;49.794;18.652;2022-08-01T09:16:05;98028.64;;;23.50;100.00
35479;BME280;21594;49.794;18.652;2022-08-01T09:18:39;98032.15;;;23.57;100.00
35479;BME280;21594;49.794;18.652;2022-08-01T09:21:09;98024.36;;;23.62;100.00
35479;BME280;21594;49.794;18.652;2022-08-01T09:23:37;98037.75;;;23.69;100.00
35479;BME280;21594;49.794;18.652;2022-08-01T09:26:06;98034.06;;;23.70;100.00
35479;BME280;21594;49.794;18.652;2022-08-01T09:28:32;98037.27;;;23.76;100.00
35479;BME280;21594;49.794;18.652;2022-08-01T09:31:10;98041.81;;;23.82;100.00
35479;BME280;21594;49.794;18.652;2022-08-01T09:33:57;98045.73;;;23.86;100.00
35479;BME280;21594;49.794;18.652;2022-08-01T09:36:27;98043.47;;;23.90;100.00
35479;BME280;21594;49.794;18.652;2022-08-01T09:38:54;98044.00;;;23.96;100.00
35479;BME280;21594;49.794;18.652;2022-08-01T09:41:31;98049.56;;;24.01;100.00
35479;BME280;21594;49.794;18.652;2022-08-01T09:43:59;98045.58;;;24.07;100.00
35479;BME280;21594;49.794;18.652;2022-08-01T09:46:26;98047.58;;;24.16;100.00
35479;BME280;21594;49.794;18.652;2022-08-01T09:48:57;98047.70;;;24.18;100.00
35479;BME280;21594;49.794;18.652;2022-08-01T09:51:29;98047.50;;;24.20;100.00
35479;BME280;21594;49.794;18.652;2022-08-01T09:54:00;98052.02;;;24.20;100.00
35479;BME280;21594;49.794;18.652;2022-08-01T09:56:28;98055.84;;;24.21;100.00
35479;BME280;21594;49.794;18.652;2022-08-01T09:58:58;98053.45;;;24.22;100.00
35479;BME280;21594;49.794;18.652;2022-08-01T10:01:25;98053.89;;;24.26;100.00
35479;BME280;21594;49.794;18.652;2022-08-01T10:04:05;98055.83;;;24.28;100.00
35479;BME280;21594;49.794;18.652;2022-08-01T10:06:31;98054.30;;;24.29;100.00
35479;BME280;21594;49.794;18.652;2022-08-01T10:09:00;98053.47;;;24.29;100.00
35479;BME280;21594;49.794;18.652;2022-08-01T10:11:26;98055.42;;;24.24;100.00
35479;BME280;21594;49.794;18.652;2022-08-01T10:13:52;98058.80;;;24.22;100.00
35479;BME280;21594;49.794;18.652;2022-08-01T10:16:19;98059.85;;;24.21;100.00
35479;BME280;21594;49.794;18.652;2022-08-01T10:18:46;98053.05;;;24.18;100.00
35479;BME280;21594;49.794;18.652;2022-08-01T10:21:13;98051.78;;;24.14;100.00
35479;BME280;21594;49.794;18.652;2022-08-01T10:23:40;98058.34;;;24.12;100.00
35479;BME280;21594;49.794;18.652;2022-08-01T10:26:10;98058.34;;;24.12;100.00
35479;BME280;21594;49.794;18.652;2022-08-01T10:28:38;98065.02;;;24.12;100.00
35479;BME280;21594;49.794;18.652;2022-08-01T10:31:06;98060.41;;;24.10;100.00
35479;BME280;21594;49.794;18.652;2022-08-01T10:33:33;98063.41;;;24.11;100.00
35479;BME280;21594;49.794;18.652;2022-08-01T10:36:02;98062.26;;;24.09;100.00
35479;BME280;21594;49.794;18.652;2022-08-01T10:38:30;98056.79;;;24.07;100.00
35479;BME280;21594;49.794;18.652;2022-08-01T10:40:57;98067.77;;;24.01;100.00
35479;BME280;21594;49.794;18.652;2022-08-01T10:43:24;98055.84;;;23.97;100.00
35479;BME280;21594;49.794;18.652;2022-08-01T10:45:51;98055.97;;;24.00;100.00
35479;BME280;21594;49.794;18.652;2022-08-01T10:51:02;98054.55;;;24.10;100.00
35479;BME280;21594;49.794;18.652;2022-08-01T10:53:29;98053.44;;;24.15;100.00
35479;BME280;21594;49.794;18.652;2022-08-01T10:55:59;98052.87;;;24.27;100.00
35479;BME280;21594;49.794;18.652;2022-08-01T10:58:34;98049.17;;;24.41;100.00
35479;BME280;21594;49.794;18.652;2022-08-01T11:01:25;98042.80;;;24.55;100.00
35479;BME280;21594;49.794;18.652;2022-08-01T11:06:40;98045.29;;;24.70;100.00
35479;BME280;21594;49.794;18.652;2022-08-01T11:12:04;98046.92;;;24.84;100.00
35479;BME280;21594;49.794;18.652;2022-08-01T11:14:33;98047.58;;;24.92;100.00
35479;BME280;21594;49.794;18.652;2022-08-01T11:30:51;98046.95;;;25.04;100.00
35479;BME280;21594;49.794;18.652;2022-08-01T11:33:19;98043.22;;;25.05;100.00
35479;BME280;21594;49.794;18.652;2022-08-01T11:41:17;98040.59;;;25.33;100.00
35479;BME280;21594;49.794;18.652;2022-08-01T11:46:58;98035.30;;;25.56;100.00
35479;BME280;21594;49.794;18.652;2022-08-01T11:52:12;98038.03;;;25.65;100.00
35479;BME280;21594;49.794;18.652;2022-08-01T11:54:47;98040.84;;;25.61;100.00
35479;BME280;21594;49.794;18.652;2022-08-01T11:57:23;98042.40;;;25.53;100.00
35479;BME280;21594;49.794;18.652;2022-08-01T11:59:54;98039.81;;;25.62;100.00
35479;BME280;21594;49.794;18.652;2022-08-01T12:02:29;98035.25;;;25.69;100.00
35479;BME280;21594;49.794;18.652;2022-08-01T12:05:08;98029.89;;;25.69;100.00
35479;BME280;21594;49.794;18.652;2022-08-01T12:07:32;98029.71;;;25.64;100.00
35479;BME280;21594;49.794;18.652;2022-08-01T12:10:08;98033.11;;;25.62;100.00
35479;BME280;21594;49.794;18.652;2022-08-01T12:12:36;98031.15;;;25.60;100.00
35479;BME280;21594;49.794;18.652;2022-08-01T12:15:07;98028.70;;;25.45;100.00
35479;BME280;21594;49.794;18.652;2022-08-01T12:17:38;98030.05;;;25.45;100.00
35479;BME280;21594;49.794;18.652;2022-08-01T12:20:07;98036.13;;;25.43;100.00
35479;BME280;21594;49.794;18.652;2022-08-01T12:22:34;98038.39;;;25.46;100.00
35479;BME280;21594;49.794;18.652;2022-08-01T12:25:07;98032.54;;;25.40;100.00
35479;BME280;21594;49.794;18.652;2022-08-01T12:27:35;98033.48;;;25.36;100.00
35479;BME280;21594;49.794;18.652;2022-08-01T12:30:04;98036.41;;;25.51;100.00
35479;BME280;21594;49.794;18.652;2022-08-01T12:32:36;98037.63;;;25.55;100.00
35479;BME280;21594;49.794;18.652;2022-08-01T12:35:06;98036.05;;;25.40;100.00
35479;BME280;21594;49.794;18.652;2022-08-01T12:37:38;98036.74;;;25.45;100.00
35479;BME280;21594;49.794;18.652;2022-08-01T12:40:17;98026.21;;;25.50;100.00
35479;BME280;21594;49.794;18.652;2022-08-01T12:42:41;98023.86;;;25.58;100.00
35479;BME280;21594;49.794;18.652;2022-08-01T12:45:10;98028.76;;;25.67;100.00
35479;BME280;21594;49.794;18.652;2022-08-01T12:47:38;98022.62;;;25.76;100.00
35479;BME280;21594;49.794;18.652;2022-08-01T12:50:15;98025.80;;;25.82;100.00
35479;BME280;21594;49.794;18.652;2022-08-01T12:52:38;98021.36;;;25.85;100.00
35479;BME280;21594;49.794;18.652;2022-08-01T12:55:08;98018.75;;;25.88;100.00
35479;BME280;21594;49.794;18.652;2022-08-01T12:57:45;98019.69;;;26.06;100.00
35479;BME280;21594;49.794;18.652;2022-08-01T13:02:49;98015.02;;;25.95;100.00
35479;BME280;21594;49.794;18.652;2022-08-01T13:05:16;98017.73;;;26.04;100.00
35479;BME280;21594;49.794;18.652;2022-08-01T13:07:51;98021.80;;;26.13;100.00
35479;BME280;21594;49.794;18.652;2022-08-01T13:10:23;98022.78;;;26.26;100.00
35479;BME280;21594;49.794;18.652;2022-08-01T13:12:50;98018.11;;;26.30;100.00
35479;BME280;21594;49.794;18.652;2022-08-01T13:15:18;98015.49;;;26.23;100.00
35479;BME280;21594;49.794;18.652;2022-08-01T13:17:45;98024.12;;;26.26;100.00
35479;BME280;21594;49.794;18.652;2022-08-01T13:22:53;98021.20;;;26.34;100.00
35479;BME280;21594;49.794;18.652;2022-08-01T13:25:19;98018.39;;;26.15;100.00
35479;BME280;21594;49.794;18.652;2022-08-01T13:27:49;98017.28;;;25.92;100.00
35479;BME280;21594;49.794;18.652;2022-08-01T13:30:18;98012.00;;;25.78;99.15
35479;BME280;21594;49.794;18.652;2022-08-01T13:32:58;98018.53;;;25.73;98.61
35479;BME280;21594;49.794;18.652;2022-08-01T13:35:26;98012.19;;;25.61;97.57
35479;BME280;21594;49.794;18.652;2022-08-01T13:37:56;98013.34;;;25.56;96.99
35479;BME280;21594;49.794;18.652;2022-08-01T13:40:27;98015.37;;;25.54;96.60
35479;BME280;21594;49.794;18.652;2022-08-01T13:42:55;98012.31;;;25.57;96.41
35479;BME280;21594;49.794;18.652;2022-08-01T13:45:22;98010.33;;;25.62;96.26
35479;BME280;21594;49.794;18.652;2022-08-01T13:47:49;98010.22;;;25.81;96.54